This is the latest recevied weather packets stored in our database for station/object NC0S. If no packets are shown the sender has not sent any weather packets the latest 10 day(s).
| Time | Temp. | Humidity | Pressure | Rain* | Wind** | Luminosity | Snow |
|---|---|---|---|---|---|---|---|
| 1777342845 | 14.44° C | 71% | 1012.6 hPa | 0 mm | - | - | - |
| 1777341684 | 15° C | 69% | 1012.2 hPa | 0 mm | - | - | - |
| 1777341044 | 15.56° C | 70% | 1011.9 hPa | 0 mm | - | - | - |
| 1777340444 | 15.56° C | 71% | 1011.6 hPa | 0 mm | - | - | - |
| 1777338644 | 16.11° C | 69% | 1011 hPa | 0 mm | - | - | - |
| 1777338044 | 16.67° C | 69% | 1010.8 hPa | 0 mm | - | - | - |
| 1777335064 | 17.22° C | 69% | 1009.9 hPa | 0 mm | - | - | - |
| 1777327844 | 22.22° C | 59% | 1007.1 hPa | 0 mm | - | - | - |
| 1777326644 | 22.22° C | 60% | 1006.8 hPa | 0 mm | - | - | - |
| 1777319444 | 23.33° C | 64% | 1004.2 hPa | 0 mm | - | - | - |
| 1777318845 | 23.89° C | 64% | 1004.3 hPa | 0 mm | - | - | - |
| 1777315245 | 23.89° C | 69% | 1003.9 hPa | 0 mm | - | - | - |
| 1777310444 | 24.44° C | 69% | 1002.6 hPa | 0 mm | - | - | - |
| 1777306844 | 22.22° C | 71% | 1002.4 hPa | 0 mm | - | - | - |
| 1777305644 | 21.11° C | 77% | 1002.4 hPa | 0 mm | - | - | - |
| 1777301444 | 18.33° C | 85% | 1002.2 hPa | 0 mm | - | - | - |
| 1777297844 | 15° C | 95% | 1002.6 hPa | 0 mm | - | - | - |
| 1777294844 | 14.44° C | 96% | 1002.5 hPa | 0 mm | - | - | - |
| 1777292444 | 14.44° C | 96% | 1002.3 hPa | 7.62 mm | - | - | - |
| 1777287064 | 16.11° C | 92% | 1002.9 hPa | 5.08 mm | - | - | - |
| 1777283446 | 17.78° C | 91% | 1001.7 hPa | 0 mm | - | - | - |
| 1777282847 | 17.78° C | 90% | 1001.6 hPa | 0 mm | - | - | - |
| 1777276846 | 17.22° C | 93% | 1001.9 hPa | 0 mm | - | - | - |
| 1777273247 | 16.67° C | 94% | 1004.3 hPa | 0 mm | - | - | - |
| 1777270846 | 16.67° C | 94% | 1004.8 hPa | 0 mm | - | - | - |
* Rain latest hour (hover to see other rain measurements)
** Current wind speed in m/s (hover to see current wind gust speed)